Weather reports worldwide

Advertisment
Toulon Arsenal, France (7660): temperature & dewpoint: 13.01.2021 06:00:00 - 19.01.2021 06:00:00 (CET)Toulon Arsenal, France (7660): wind speed & gusts: 13.01.2021 06:00:00 - 19.01.2021 06:00:00 (CET)Toulon Arsenal, France (7660): wind direction: 13.01.2021 06:00:00 - 19.01.2021 06:00:00 (CET)Toulon Arsenal, France (7660): reduced air pressure: 13.01.2021 06:00:00 - 19.01.2021 06:00:00 (CET)Toulon Arsenal, France (7660): precipitation: 13.01.2021 06:00:00 - 19.01.2021 06:00:00 (CET)
Date & Time tt [°C] td [°C] ff [km/h] ff [kn] fx [km/h] fx [kn] dd ppp [hPa] rr [mm]
19.01.2021 06:00:00 0,8 -0,1 2 1 5 3 N 1025,1 0,0
19.01.2021 05:00:00 1,0 0,0 0 0 7 4 N 1025,1 0,0
19.01.2021 04:00:00 1,4 0,1 0 0 5 3 N 1025,2 0,0
19.01.2021 03:00:00 1,7 0,4 2 1 4 2 N 1025,4 0,0
19.01.2021 02:00:00 1,8 0,2 0 0 3 2 N 1025,3 0,0
19.01.2021 01:00:00 2,5 0,4 0 0 6 3 N 1025,6 0,0
19.01.2021 00:00:00 2,7 0,1 0 0 6 4 N 1025,7 0,0
18.01.2021 23:00:00 2,9 0,1 3 1 6 3 NNW 1025,6 0,0
18.01.2021 22:00:00 3,7 0,4 0 0 6 4 N 1025,5 0,0
18.01.2021 21:00:00 4,8 0,4 4 2 8 4 NW 1025,4 0,0
18.01.2021 20:00:00 5,0 0,2 3 2 7 4 W 1025,0 0,0
18.01.2021 19:00:00 6,5 0,4 3 2 11 6 WNW 1024,8 0,0
18.01.2021 18:00:00 7,0 0,6 4 2 8 4 N 1024,3 0,0
18.01.2021 17:00:00 12,1 0,5 4 2 18 10 SSW 1023,6 0,0
18.01.2021 16:00:00 12,8 0,5 10 5 18 10 S 1023,3 0,0
18.01.2021 15:00:00 13,7 -2,3 6 4 15 8 SSE 1022,8 0,0
18.01.2021 14:00:00 14,0 -3,3 4 2 16 9 ESE 1022,8 0,0
18.01.2021 13:00:00 12,6 -4,1 6 3 15 8 SE 1022,9 0,0
18.01.2021 12:00:00 11,6 -3,0 10 5 19 10 SE 1023,2 0,0
18.01.2021 11:00:00 10,3 -3,1 5 3 8 5 SW 1023,3 0,0
18.01.2021 10:00:00 8,3 -2,4 0 0 7 4 N 1023,2 0,0
18.01.2021 09:00:00 2,4 -2,7 3 1 7 4 WNW 1022,5 0,0
18.01.2021 08:00:00 0,5 -4,2 3 2 6 3 NW 1022,2 0,0
18.01.2021 07:00:00 0,6 -4,2 3 2 7 4 WNW 1021,9 0,0
18.01.2021 06:00:00 1,2 -3,9 3 2 6 3 N 1021,6 0,0
18.01.2021 05:00:00 1,8 -3,9 3 2 8 4 NNW 1021,6 0,0
18.01.2021 04:00:00 3,0 -3,6 3 2 10 5 NNW 1021,5 0,0
18.01.2021 03:00:00 3,2 -3,2 3 2 8 4 N 1021,6 0,0
18.01.2021 02:00:00 4,1 -4,1 2 1 11 6 NNE 1020,7 0,0
18.01.2021 01:00:00 7,6 -3,9 5 3 14 8 W 1020,2 0,0
18.01.2021 00:00:00 8,7 -5,2 3 1 20 11 WSW 1019,8 0,0
17.01.2021 23:00:00 10,2 -5,0 6 4 34 18 ENE 1019,3 0,0
17.01.2021 22:00:00 9,8 -4,2 11 6 49 26 W 1018,7 0,0
17.01.2021 21:00:00 9,9 -4,5 8 4 45 24 NNW 1017,9 0,0
17.01.2021 20:00:00 9,7 -3,3 24 13 56 30 WNW 1017,8 0,0
17.01.2021 19:00:00 10,1 -1,3 17 9 51 28 W 1018,2 0,0
17.01.2021 18:00:00 10,9 -1,5 24 13 52 28 WNW 1016,9 0,0
17.01.2021 17:00:00 11,6 0,1 27 14 56 31 W 1016,1 0,0
17.01.2021 16:00:00 13,2 -0,5 21 11 54 29 W 1015,5 0,0
17.01.2021 15:00:00 13,7 -0,4 25 14 55 30 W 1015,0 0,0
17.01.2021 14:00:00 13,5 -0,2 30 16 68 37 W 1015,4 0,0
17.01.2021 13:00:00 13,5 -0,2 37 20 79 43 W 1015,7 0,0
17.01.2021 12:00:00 13,6 -0,1 34 19 74 40 WNW 1015,5 0,0
17.01.2021 11:00:00 13,5 0,5 40 21 68 37 WNW 1015,8 0,0
17.01.2021 10:00:00 12,1 1,1 37 20 70 38 WNW 1015,7 0,0
17.01.2021 09:00:00 10,8 2,4 36 20 71 38 WNW 1015,1 0,0
17.01.2021 08:00:00 8,3 1,4 36 20 75 40 WNW 1014,8 0,0
17.01.2021 07:00:00 8,0 0,5 39 21 74 40 WNW 1014,6 0,0
17.01.2021 06:00:00 8,1 -0,4 37 20 75 41 WNW 1015,7 0,0
17.01.2021 05:00:00 8,7 0,2 27 14 59 32 W 1016,7 0,0
17.01.2021 04:00:00 8,0 0,2 21 11 44 24 W 1017,5 0,0
17.01.2021 03:00:00 8,8 -0,3 21 11 55 30 W 1018,2 0,0
17.01.2021 02:00:00 9,4 -0,5 23 13 53 29 W 1018,7 0,0
17.01.2021 01:00:00 9,5 -0,1 19 10 45 24 W 1019,1 0,0
17.01.2021 00:00:00 9,0 -3,9 21 12 41 22 W 1019,2 0,0
16.01.2021 23:00:00 5,9 -4,6 6 4 15 8 WNW 1020,0 0,0
16.01.2021 22:00:00 5,2 -2,6 4 2 19 10 WNW 1020,5 0,0
16.01.2021 21:00:00 6,0 -1,9 9 5 19 10 W 1021,1 0,0
16.01.2021 20:00:00 5,5 0,8 6 3 10 6 NW 1021,4 0,0
16.01.2021 19:00:00 5,7 1,2 4 2 11 6 NW 1021,6 0,0
16.01.2021 18:00:00 7,5 1,8 2 1 13 7 W 1021,6 0,0
16.01.2021 17:00:00 10,1 3,4 5 3 12 6 WSW 1021,5 0,0
16.01.2021 16:00:00 11,3 2,3 3 1 9 5 SSW 1021,3 0,0
16.01.2021 15:00:00 11,1 2,1 0 0 10 5 N 1021,3 0,0
16.01.2021 14:00:00 10,7 2,3 3 2 16 8 NE 1021,1 0,0
16.01.2021 13:00:00 10,5 2,3 0 0 6 4 N 1021,4 0,0
16.01.2021 12:00:00 10,1 1,2 3 2 6 3 WSW 1021,7 0,0
16.01.2021 11:00:00 9,7 1,3 0 0 8 5 N 1021,7 0,0
16.01.2021 10:00:00 7,9 0,6 4 2 6 3 E 1021,3 0,0
16.01.2021 09:00:00 6,5 2,0 0 0 5 3 N 1020,6 0,0
16.01.2021 08:00:00 6,8 0,9 4 2 10 6 NE 1020,4 0,0
16.01.2021 07:00:00 5,2 1,5 2 1 8 5 ESE 1020,2 0,0
16.01.2021 06:00:00 5,6 2,1 5 3 14 8 WNW 1019,9 0,0
16.01.2021 05:00:00 4,8 1,3 2 1 7 4 WNW 1019,6 0,0
16.01.2021 04:00:00 5,8 1,5 3 2 7 4 NW 1019,3 0,0
16.01.2021 03:00:00 6,1 1,2 5 3 7 4 ENE 1019,0 0,0
16.01.2021 02:00:00 5,5 0,7 2 1 9 5 NW 1018,5 0,0
16.01.2021 01:00:00 4,6 -0,8 5 3 8 5 NW 1018,0 0,0
16.01.2021 00:00:00 5,0 -1,5 2 1 8 4 W 1017,8 0,0
15.01.2021 23:00:00 4,3 -2,1 0 0 10 5 N 1017,1 0,0
15.01.2021 22:00:00 5,6 -2,0 4 2 20 11 W 1016,5 0,0
15.01.2021 21:00:00 7,2 -2,0 13 7 28 15 W 1015,9 0,0
15.01.2021 20:00:00 7,6 -1,9 12 7 36 20 W 1015,5 0,0
15.01.2021 19:00:00 8,4 -2,0 11 6 41 22 W 1015,3 0,0
15.01.2021 18:00:00 9,2 -1,5 14 8 44 24 W 1014,5 0,0
15.01.2021 17:00:00 11,0 -1,1 18 10 51 27 W 1014,6 0,0
15.01.2021 16:00:00 12,3 0,4 29 16 56 30 WNW 1013,8 0,0
15.01.2021 15:00:00 13,4 1,1 18 10 44 24 W 1014,2 0,0
15.01.2021 14:00:00 14,2 1,5 13 7 46 25 W 1014,4 0,0
15.01.2021 13:00:00 13,9 1,8 20 11 58 31 WNW 1014,7 0,0
15.01.2021 12:00:00 13,5 1,8 19 11 57 31 W 1015,0 0,0
15.01.2021 11:00:00 13,1 1,7 22 12 55 30 WNW 1015,4 0,0
15.01.2021 10:00:00 12,5 1,5 24 13 62 34 W 1014,8 0,0
15.01.2021 09:00:00 11,7 1,6 18 10 65 35 W 1014,0 0,0
15.01.2021 08:00:00 11,7 1,9 26 14 72 39 WNW 1013,1 0,0
15.01.2021 07:00:00 10,9 2,5 26 14 57 31 WNW 1012,7 0,0
15.01.2021 06:00:00 10,8 2,4 22 12 62 34 WNW 1012,8 0,0
15.01.2021 05:00:00 11,1 2,4 28 15 54 29 WNW 1013,3 0,0
15.01.2021 04:00:00 10,8 3,1 25 14 46 25 W 1014,2 0,0
15.01.2021 03:00:00 10,7 3,0 23 12 44 24 WNW 1013,7 0,0
15.01.2021 02:00:00 10,5 3,1 23 12 62 34 WNW 1013,2 0,0
15.01.2021 01:00:00 11,4 2,9 29 16 59 32 W 1012,7 0,0
15.01.2021 00:00:00 11,5 3,0 28 15 53 29 W 1013,7 0,0
14.01.2021 23:00:00 11,4 2,9 24 13 59 32 W 1013,7 0,0
14.01.2021 22:00:00 12,3 2,7 25 13 55 30 W 1013,2 0,0
14.01.2021 21:00:00 12,8 2,3 20 11 46 25 W 1013,8 0,0
14.01.2021 20:00:00 12,6 2,2 20 11 45 25 W 1013,2 0,0
14.01.2021 19:00:00 12,8 2,3 17 9 50 27 W 1012,8 0,0
14.01.2021 18:00:00 12,9 2,1 18 10 65 35 WNW 1012,6 0,0
14.01.2021 17:00:00 13,5 2,1 33 18 61 33 WNW 1012,0 0,0
14.01.2021 16:00:00 14,4 2,3 27 15 61 33 WNW 1011,7 0,0
14.01.2021 15:00:00 14,9 2,4 21 11 67 36 WNW 1011,7 0,0
14.01.2021 14:00:00 14,4 2,3 24 13 60 33 W 1012,4 0,0
14.01.2021 13:00:00 14,2 2,1 28 15 61 33 W 1013,4 0,0
14.01.2021 12:00:00 13,5 2,1 26 14 56 31 W 1014,5 0,0
14.01.2021 11:00:00 12,7 1,4 26 14 54 29 WNW 1014,8 0,0
14.01.2021 10:00:00 11,7 2,2 24 13 53 28 W 1015,0 0,0
14.01.2021 09:00:00 11,0 3,0 19 10 41 22 W 1015,4 0,0
14.01.2021 08:00:00 10,4 3,0 19 10 48 26 WNW 1015,3 0,0
14.01.2021 07:00:00 10,7 3,2 22 12 51 28 W 1015,6 0,0
14.01.2021 06:00:00 10,7 3,5 18 10 40 22 W 1015,7 0,0
14.01.2021 05:00:00 10,8 3,6 16 9 50 27 WNW 1015,9 0,0
14.01.2021 04:00:00 11,2 3,7 21 12 48 26 W 1016,6 0,0
14.01.2021 03:00:00 11,4 4,1 19 10 44 24 W 1017,2 0,0
14.01.2021 02:00:00 11,6 4,3 20 11 49 27 W 1017,4 0,0
14.01.2021 01:00:00 11,4 4,8 27 15 48 26 W 1017,6 0,0
14.01.2021 00:00:00 11,8 4,7 22 12 46 25 W 1018,0 0,0
13.01.2021 23:00:00 11,8 4,7 22 12 48 26 W 1018,4 0,0
13.01.2021 22:00:00 12,6 4,5 24 13 46 25 W 1018,7 0,0
13.01.2021 21:00:00 12,7 4,9 20 11 41 22 W 1019,0 0,0
13.01.2021 20:00:00 12,9 5,1 17 9 50 27 W 1019,3 0,0
13.01.2021 19:00:00 13,0 5,4 20 11 46 25 W 1019,0 0,0
13.01.2021 18:00:00 13,8 5,2 22 12 52 28 W 1018,5 0,0
13.01.2021 17:00:00 14,9 5,1 21 12 53 28 W 1017,8 0,0
13.01.2021 16:00:00 15,6 5,2 21 12 57 31 W 1018,0 0,0
13.01.2021 15:00:00 15,9 5,5 26 14 57 31 W 1017,8 0,0
13.01.2021 14:00:00 15,8 6,0 21 12 59 32 W 1017,8 0,0
13.01.2021 13:00:00 14,9 5,4 28 15 57 31 W 1018,3 0,0
13.01.2021 12:00:00 14,3 5,4 21 12 51 27 W 1019,2 0,0
13.01.2021 11:00:00 13,3 5,0 26 14 54 29 W 1019,6 0,0
13.01.2021 10:00:00 12,2 4,9 19 10 41 22 W 1019,4 0,0
13.01.2021 09:00:00 10,6 4,5 16 9 42 23 W 1018,9 0,0
13.01.2021 08:00:00 10,2 3,7 17 9 49 26 W 1018,3 0,0
13.01.2021 07:00:00 9,9 3,6 27 14 50 27 W 1018,0 0,0
13.01.2021 06:00:00 10,0 3,5 22 12 46 25 W 1017,9 0,0

tt = temperature
td = dewpoint
ff = wind speed
fx = gusts
dd = wind direction
ppp = reduced air pressure
rr = precipitation

Next stations